EST,Max TemperatureF,Mean TemperatureF,Min TemperatureF,Max Dew PointF,MeanDew PointF,Min DewpointF,Max Humidity, Mean Humidity, Min Humidity, Max Sea Level PressureIn, Mean Sea Level PressureIn, Min Sea Level PressureIn, Max VisibilityMiles, Mean VisibilityMiles, Min VisibilityMiles, Max Wind SpeedMPH, Mean Wind SpeedMPH, Max Gust SpeedMPH,PrecipitationIn, CloudCover, Events, WindDirDegrees
2012-12-1,59,50,42,46,42,37,81,71,58,30.26,30.20,30.14,10,10,9,12,7,,0.00,5,,180
2012-12-2,57,54,51,58,54,45,100,94,67,30.14,30.09,30.05,10,4,1,17,10,25,0.35,8,Rain,206
2012-12-3,68,62,57,58,57,52,100,90,70,30.14,30.11,30.06,10,7,1,13,7,,0.01,6,Rain,193
2012-12-4,64,52,39,61,51,41,100,87,75,30.19,30.07,29.99,10,8,2,23,11,29,0.30,7,Rain-Thunderstorm,233
2012-12-5,43,36,28,41,33,25,100,85,58,30.37,30.29,30.20,10,7,0,9,4,,0.00,0,Fog,25
2012-12-6,46,36,27,44,33,23,97,80,65,30.30,30.11,29.97,10,10,7,10,7,,0.00,4,,134
2012-12-7,53,48,44,52,48,45,100,99,93,30.00,29.92,29.83,8,3,0,13,4,20,0.56,8,Fog-Rain,137
2012-12-8,53,49,45,52,49,42,100,93,82,30.04,29.89,29.83,10,6,2,13,7,,0.05,8,Rain,257
2012-12-9,57,50,42,57,47,39,100,92,86,30.06,29.89,29.70,10,8,2,14,10,21,0.44,8,Rain,131
2012-12-10,55,42,30,54,38,27,100,88,75,29.94,29.74,29.67,10,8,2,14,10,18,0.02,8,Rain-Snow,284
2012-12-11,32,28,24,29,24,20,88,76,64,30.25,30.10,29.94,10,10,6,10,7,,0.00,6,,238
2012-12-12,41,31,21,27,22,19,92,72,45,30.42,30.37,30.27,10,9,7,7,4,,0.00,0,,147
2012-12-13,45,34,23,27,23,20,88,69,40,30.43,30.36,30.28,10,10,10,8,4,,0.00,0,,165
2012-12-14,53,40,27,29,25,22,89,58,30,30.31,30.25,30.17,10,10,9,9,6,,0.00,0,,193
2012-12-15,52,47,42,43,36,25,77,64,46,30.16,29.94,29.79,10,10,9,13,7,,0.02,6,Rain,172
2012-12-16,60,55,48,52,48,43,94,78,62,29.79,29.73,29.65,10,10,10,18,10,24,0.00,6,,205
2012-12-17,46,42,39,45,43,39,100,96,86,29.73,29.64,29.54,10,3,0,12,5,,0.35,7,Fog-Rain-Thunderstorm,15
2012-12-18,39,37,35,39,35,32,97,89,76,29.87,29.76,29.62,10,8,4,18,8,25,0.04,7,Rain,264
2012-12-19,45,41,37,36,34,33,87,80,68,30.09,29.98,29.78,10,8,5,14,8,21,0.00,4,,225
2012-12-20,50,42,32,48,39,25,100,84,60,29.94,29.51,29.25,10,7,2,30,16,45,0.84,7,Rain-Snow,177
2012-12-21,30,28,27,25,23,21,81,79,74,30.05,29.71,29.47,10,8,2,26,21,41,0.00,8,Snow,264
2012-12-22,32,28,24,22,20,18,81,73,56,30.25,30.15,30.03,10,10,10,15,11,24,0.00,4,,248
2012-12-23,44,34,24,28,23,18,85,71,53,30.07,29.98,29.94,10,10,9,12,6,,0.00,0,,201
2012-12-24,39,34,28,39,32,24,100,90,78,30.01,29.84,29.75,10,5,0,12,7,21,0.01,7,Fog-Rain,255
2012-12-25,34,32,30,29,27,24,93,82,70,30.19,30.12,29.99,10,8,5,16,8,29,0.00,8,,22
2012-12-26,33,30,27,29,27,22,93,89,70,30.04,29.68,29.55,10,3,0,26,18,37,0.39,8,Fog-Snow-Thunderstorm,27
2012-12-27,28,26,24,23,22,21,91,80,74,30.19,30.10,29.90,10,10,8,12,7,,0.00,7,,285
2012-12-28,32,26,21,27,23,19,96,86,73,30.19,30.04,29.84,10,8,1,8,3,,0.02,5,Snow,83
2012-12-29,30,28,25,28,26,20,100,91,78,30.19,29.85,29.71,9,3,0,17,7,29,0.14,8,Fog-Snow,325
2012-12-30,27,24,21,20,17,15,88,77,66,30.45,30.37,30.20,10,10,8,13,9,20,0.00,4,,232
2012-12-31,34,28,21,31,28,18,96,88,64,30.31,30.12,30.04,10,5,1,16,10,23,0.01,7,Snow,220